Time;durP1;ratioP1;P1;durP2;ratioP2;P2;SDS_P1;SDS_P2;PMS_P1;PMS_P2;Temp;Humidity;BMP_temperature;BMP_pressure;BME280_temperature;BME280_humidity;BME280_pressure;Samples;Min_cycle;Max_cycle;Signal;HPM_P1;HPM_P2
2023/06/09 05:38:25;;;;;;;8.67;4.77;;;15.10;99.90;;;;;;5017557;28;20238;-51
2023/06/09 05:40:52;;;;;;;9.20;5.00;;;15.00;99.90;;;;;;5033375;28;20227;-58
2023/06/09 05:43:19;;;;;;;8.77;4.90;;;15.20;99.90;;;;;;5034535;28;20939;-57
2023/06/09 05:45:47;;;;;;;9.93;4.80;;;15.40;99.90;;;;;;5025462;28;20739;-59
2023/06/09 05:48:14;;;;;;;8.20;4.70;;;15.30;99.90;;;;;;5031542;28;20968;-56
2023/06/09 05:50:41;;;;;;;6.27;4.53;;;15.50;99.90;;;;;;5050729;28;20233;-59
2023/06/09 05:53:08;;;;;;;7.70;4.53;;;15.50;99.90;;;;;;5042727;28;20264;-57
2023/06/09 05:55:36;;;;;;;9.50;5.17;;;15.60;99.90;;;;;;5025546;28;20245;-58
2023/06/09 05:58:03;;;;;;;10.10;5.03;;;15.70;99.90;;;;;;5035696;28;20219;-57
2023/06/09 06:00:30;;;;;;;11.23;4.50;;;15.80;99.90;;;;;;5020585;28;20199;-59
2023/06/09 06:02:57;;;;;;;8.87;4.80;;;15.80;99.90;;;;;;5022394;28;20203;-53
2023/06/09 06:05:24;;;;;;;10.57;4.93;;;16.00;99.90;;;;;;5039312;28;20666;-59
2023/06/09 06:07:51;;;;;;;9.60;4.33;;;16.10;99.90;;;;;;5041448;28;20224;-57
2023/06/09 06:10:18;;;;;;;11.03;4.40;;;16.10;99.90;;;;;;5029982;28;20294;-58
2023/06/09 06:12:46;;;;;;;7.67;4.40;;;16.30;99.90;;;;;;5035299;28;20242;-58
2023/06/09 06:15:13;;;;;;;9.30;5.07;;;16.40;99.90;;;;;;5033032;28;20199;-56
2023/06/09 06:17:40;;;;;;;8.60;4.03;;;16.50;99.90;;;;;;5024950;28;20297;-56
2023/06/09 06:20:08;;;;;;;8.67;4.40;;;16.60;99.90;;;;;;5023550;28;20219;-54
2023/06/09 06:22:35;;;;;;;7.73;4.30;;;16.60;99.90;;;;;;5042735;28;20666;-55
2023/06/09 06:25:03;;;;;;;11.03;3.90;;;;;;;;;;5035583;28;20238;-57
2023/06/09 06:27:30;;;;;;;6.03;4.13;;;16.80;99.90;;;;;;5042106;28;20830;-56
2023/06/09 06:29:58;;;;;;;7.43;4.53;;;16.90;99.90;;;;;;5041296;28;20203;-58
2023/06/09 06:32:25;;;;;;;6.43;4.63;;;;;;;;;;5024284;28;20447;-58
2023/06/09 06:34:52;;;;;;;8.07;4.47;;;17.20;99.90;;;;;;5032024;28;20440;-58
2023/06/09 06:37:19;;;;;;;10.30;4.43;;;17.40;99.90;;;;;;5032895;28;20328;-54
2023/06/09 06:39:46;;;;;;;7.00;4.10;;;17.50;99.90;;;;;;5034756;28;20199;-59
2023/06/09 06:42:13;;;;;;;8.00;4.67;;;17.60;99.90;;;;;;5038385;28;20876;-55
2023/06/09 06:44:54;;;;;;;6.40;4.03;;;17.60;99.90;;;;;;5039214;28;20658;-58
2023/06/09 06:47:22;;;;;;;6.97;4.00;;;17.70;99.90;;;;;;5042475;28;20223;-50
2023/06/09 06:49:49;;;;;;;9.10;4.20;;;17.80;99.90;;;;;;5008596;28;20212;-59
2023/06/09 06:52:16;;;;;;;5.53;3.70;;;17.80;99.90;;;;;;5030249;28;20248;-56
2023/06/09 06:54:43;;;;;;;7.73;4.00;;;18.00;99.90;;;;;;5023166;28;21084;-57
2023/06/09 06:57:09;;;;;;;8.80;3.80;;;18.10;99.90;;;;;;5037059;28;20212;-56
2023/06/09 06:59:37;;;;;;;6.83;3.90;;;;;;;;;;5036743;28;20195;-56
2023/06/09 07:02:04;;;;;;;7.70;3.50;;;18.00;99.90;;;;;;5038705;28;20845;-59
2023/06/09 07:04:33;;;;;;;10.07;4.40;;;18.40;99.90;;;;;;5018739;28;20235;-59
2023/06/09 07:06:59;;;;;;;10.67;3.77;;;18.60;99.90;;;;;;5019533;28;20284;-56
2023/06/09 07:09:27;;;;;;;11.10;4.27;;;18.70;99.90;;;;;;5031092;28;20242;-60
2023/06/09 07:11:57;;;;;;;11.03;3.73;;;;;;;;;;5034566;28;20874;-56
2023/06/09 07:14:27;;;;;;;11.57;3.70;;;;;;;;;;5042476;28;20195;-60
2023/06/09 07:16:54;;;;;;;6.43;3.87;;;;;;;;;;5035820;28;20226;-54
2023/06/09 07:19:23;;;;;;;7.97;3.93;;;;;;;;;;5039518;28;20222;-60
2023/06/09 07:21:52;;;;;;;8.23;4.00;;;;;;;;;;5006067;28;20218;-59
2023/06/09 07:24:19;;;;;;;52.93;10.70;;;;;;;;;;5028603;28;20206;-56
2023/06/09 07:26:47;;;;;;;4.90;3.80;;;;;;;;;;5034861;28;20213;-58
2023/06/09 07:29:17;;;;;;;5.47;4.03;;;;;;;;;;5043818;28;20188;-52
2023/06/09 07:31:46;;;;;;;8.43;4.90;;;;;;;;;;5031218;28;20300;-53
2023/06/09 07:34:15;;;;;;;5.30;3.60;;;;;;;;;;5037654;28;20183;-56
2023/06/09 07:36:42;;;;;;;8.80;4.47;;;19.70;99.90;;;;;;5004144;28;20199;-57
2023/06/09 07:39:10;;;;;;;6.40;4.13;;;19.80;99.90;;;;;;5039660;28;20234;-57
2023/06/09 07:41:37;;;;;;;7.83;3.70;;;20.00;99.90;;;;;;5022941;28;20234;-60
2023/06/09 07:44:06;;;;;;;7.63;4.23;;;20.10;99.90;;;;;;5037907;28;20280;-57
2023/06/09 07:46:33;;;;;;;10.10;4.30;;;20.10;99.90;;;;;;5032132;28;20202;-61
2023/06/09 07:49:00;;;;;;;6.67;4.20;;;20.20;99.90;;;;;;5034701;28;20218;-60
2023/06/09 07:51:29;;;;;;;5.73;4.47;;;20.20;99.90;;;;;;5010152;28;20208;-60
2023/06/09 07:53:55;;;;;;;4.87;3.77;;;20.30;99.90;;;;;;5032868;28;20218;-56
2023/06/09 07:56:24;;;;;;;11.40;4.60;;;20.50;99.90;;;;;;5025429;28;20685;-55
2023/06/09 07:58:52;;;;;;;9.10;4.17;;;20.60;99.90;;;;;;5038390;28;20214;-55
2023/06/09 08:01:19;;;;;;;9.83;4.03;;;20.60;99.90;;;;;;5038908;28;20199;-58
2023/06/09 08:03:46;;;;;;;5.63;4.20;;;20.70;99.90;;;;;;5025666;28;20236;-59
2023/06/09 08:06:14;;;;;;;9.47;4.70;;;20.80;99.90;;;;;;5039828;28;20207;-58
2023/06/09 08:08:41;;;;;;;8.37;4.27;;;20.90;99.90;;;;;;5011783;28;20226;-60
2023/06/09 08:11:08;;;;;;;7.63;4.30;;;21.10;99.90;;;;;;5034590;28;20204;-59
2023/06/09 08:13:36;;;;;;;8.10;4.67;;;21.30;99.90;;;;;;5034776;28;20206;-60
2023/06/09 08:16:03;;;;;;;6.73;3.93;;;21.40;99.90;;;;;;5025330;28;20227;-60
2023/06/09 08:18:30;;;;;;;6.53;3.40;;;21.40;98.90;;;;;;5029469;28;20231;-61
2023/06/09 08:20:57;;;;;;;5.50;4.23;;;21.50;98.70;;;;;;5039033;28;20195;-54
2023/06/09 08:23:24;;;;;;;5.20;3.63;;;21.60;98.40;;;;;;5015119;28;20273;-60
2023/06/09 08:25:51;;;;;;;6.97;4.13;;;21.70;98.20;;;;;;5025015;28;20207;-60
2023/06/09 08:28:18;;;;;;;5.53;3.90;;;21.70;97.40;;;;;;5034183;28;20215;-60
2023/06/09 08:30:46;;;;;;;7.57;4.57;;;21.80;97.40;;;;;;5032740;28;20874;-59
2023/06/09 08:33:13;;;;;;;3.90;3.50;;;21.90;97.00;;;;;;5027260;28;20214;-59
2023/06/09 08:35:40;;;;;;;6.20;4.40;;;22.10;96.60;;;;;;5038354;28;20188;-60
2023/06/09 08:38:07;;;;;;;5.83;3.83;;;22.10;96.40;;;;;;5011412;28;20244;-55
2023/06/09 08:40:35;;;;;;;7.37;4.20;;;22.30;96.20;;;;;;5029997;28;20547;-60
2023/06/09 08:43:04;;;;;;;4.47;3.80;;;22.40;96.20;;;;;;5033579;28;20250;-59
2023/06/09 08:45:35;;;;;;;4.00;3.57;;;22.50;95.60;;;;;;5019037;28;20289;-54
2023/06/09 08:48:05;;;;;;;5.87;4.17;;;22.60;94.80;;;;;;5034751;28;20281;-67
2023/06/09 08:50:34;;;;;;;7.27;3.30;;;22.70;93.60;;;;;;5027711;28;20257;-66
2023/06/09 08:53:01;;;;;;;5.40;3.67;;;22.80;92.90;;;;;;5029170;28;20237;-54
2023/06/09 08:55:29;;;;;;;7.07;3.88;;;22.80;93.00;;;;;;5031827;28;20918;-54
2023/06/09 08:57:55;;;;;;;7.13;3.60;;;22.90;92.30;;;;;;5026513;28;20250;-55
2023/06/09 09:00:23;;;;;;;7.85;3.95;;;22.90;92.10;;;;;;5033314;28;20557;-55
2023/06/09 09:02:50;;;;;;;5.40;3.50;;;23.00;91.10;;;;;;5035162;28;20222;-55
2023/06/09 09:05:19;;;;;;;4.40;3.60;;;22.90;90.90;;;;;;5029636;28;20246;-55
2023/06/09 09:07:46;;;;;;;4.80;3.65;;;23.00;90.10;;;;;;5045050;28;20212;-52
2023/06/09 09:10:13;;;;;;;8.30;3.88;;;23.00;90.20;;;;;;5013699;28;20907;-54
2023/06/09 09:12:51;;;;;;;4.18;3.75;;;23.00;90.10;;;;;;5026694;28;20584;-54
2023/06/09 09:15:18;;;;;;;7.00;3.70;;;23.10;89.10;;;;;;5031048;28;20218;-48
2023/06/09 09:17:46;;;;;;;5.78;3.40;;;23.20;87.70;;;;;;5044331;28;20756;-54
2023/06/09 09:20:14;;;;;;;5.25;3.25;;;23.30;86.60;;;;;;5027302;28;20223;-52
2023/06/09 09:22:46;;;;;;;6.40;3.70;;;23.40;85.80;;;;;;5043682;28;20192;-54
2023/06/09 09:25:22;;;;;;;3.75;3.22;;;23.40;84.00;;;;;;5013471;28;20311;-56
2023/06/09 09:28:03;;;;;;;5.00;3.55;;;23.40;81.40;;;;;;5032522;28;20222;-56
2023/06/09 09:30:47;;;;;;;7.45;4.10;;;23.50;81.30;;;;;;5028100;28;20251;-53
2023/06/09 09:33:16;;;;;;;4.75;3.40;;;23.50;79.60;;;;;;5029844;28;20602;-54
2023/06/09 09:35:45;;;;;;;5.18;3.67;;;23.50;78.50;;;;;;5031467;28;21088;-51
2023/06/09 09:38:17;;;;;;;5.30;3.67;;;23.60;78.90;;;;;;5039064;28;20681;-54
2023/06/09 09:40:48;;;;;;;6.43;4.03;;;23.70;80.40;;;;;;5003999;28;20196;-56
2023/06/09 09:43:16;;;;;;;4.93;3.60;;;23.90;80.70;;;;;;5043467;28;20207;-55
2023/06/09 09:45:45;;;;;;;5.47;3.83;;;23.90;79.40;;;;;;5032535;28;20227;-53
2023/06/09 09:48:14;;;;;;;4.72;4.00;;;23.90;79.60;;;;;;5028164;28;20562;-53
2023/06/09 09:50:43;;;;;;;5.32;3.83;;;23.90;79.40;;;;;;5034542;28;20196;-52
2023/06/09 09:53:10;;;;;;;9.05;3.85;;;24.00;78.50;;;;;;5030584;28;20204;-54
2023/06/09 09:55:42;;;;;;;6.68;4.05;;;24.00;78.00;;;;;;5016557;28;21974;-53
2023/06/09 09:58:10;;;;;;;5.93;3.33;;;24.00;76.60;;;;;;5030125;28;20324;-55
2023/06/09 10:00:39;;;;;;;6.10;3.65;;;23.90;76.70;;;;;;5030197;28;20275;-53
2023/06/09 10:03:08;;;;;;;3.70;3.40;;;24.00;75.90;;;;;;5033991;28;20199;-52
2023/06/09 10:05:39;;;;;;;5.95;3.65;;;24.20;73.90;;;;;;5030623;28;20210;-52
2023/06/09 10:08:07;;;;;;;4.65;3.67;;;24.30;72.60;;;;;;5029508;28;20584;-54
2023/06/09 10:10:35;;;;;;;4.28;3.25;;;24.40;72.60;;;;;;5015103;28;20569;-55
2023/06/09 10:13:03;;;;;;;4.57;3.22;;;24.60;93.70;;;;;;5033411;28;20681;-48
2023/06/09 10:15:32;;;;;;;4.45;3.90;;;24.60;93.00;;;;;;5033874;28;20222;-53
2023/06/09 10:18:00;;;;;;;4.68;3.47;;;24.70;90.60;;;;;;5038654;28;20712;-51
2023/06/09 10:20:27;;;;;;;4.75;3.50;;;24.70;92.30;;;;;;5028481;28;20223;-54
2023/06/09 10:22:54;;;;;;;6.22;3.17;;;24.80;87.50;;;;;;5031567;28;20227;-53
2023/06/09 10:25:24;;;;;;;6.28;3.75;;;24.80;88.60;;;;;;5033407;28;20199;-56
2023/06/09 10:27:51;;;;;;;6.90;2.83;;;24.90;81.20;;;;;;5020472;28;20215;-47
2023/06/09 10:30:21;;;;;;;3.35;2.95;;;24.80;77.70;;;;;;5034511;28;20227;-55
2023/06/09 10:32:52;;;;;;;4.43;3.38;;;24.90;82.40;;;;;;5039492;28;20278;-51
2023/06/09 10:35:26;;;;;;;4.93;3.55;;;25.00;84.40;;;;;;5026464;28;20297;-54
2023/06/09 10:37:54;;;;;;;5.97;3.60;;;24.90;83.40;;;;;;5033362;28;20223;-47
2023/06/09 10:40:29;;;;;;;6.85;3.90;;;24.90;82.00;;;;;;5034170;28;20219;-54
2023/06/09 10:43:11;;;;;;;3.45;3.05;;;24.90;82.80;;;;;;5017268;28;20211;-49
2023/06/09 10:45:52;;;;;;;4.68;3.40;;;25.00;83.50;;;;;;5032007;28;20270;-47
2023/06/09 10:48:41;;;;;;;5.00;3.40;;;25.20;87.90;;;;;;5021968;28;20215;-52
2023/06/09 10:51:40;;;;;;;5.10;3.45;;;25.20;87.30;;;;;;5026851;28;20297;-49
2023/06/09 10:54:21;;;;;;;3.25;2.85;;;25.00;87.20;;;;;;5028784;28;20282;-48
2023/06/09 10:56:52;;;;;;;3.92;3.13;;;25.10;82.40;;;;;;5019624;28;20705;-54
2023/06/09 11:00:15;;;;;;;4.50;3.00;;;24.90;84.20;;;;;;5040123;28;20223;-49
2023/06/09 11:02:45;;;;;;;5.78;3.33;;;25.10;83.40;;;;;;5030483;28;20267;-53
2023/06/09 11:05:13;;;;;;;5.68;3.92;;;25.40;92.20;;;;;;5033462;28;20898;-52
2023/06/09 11:07:43;;;;;;;4.70;3.63;;;25.50;92.20;;;;;;5034204;28;20277;-54
2023/06/09 11:10:35;;;;;;;4.50;3.35;;;25.70;91.20;;;;;;5022361;28;20198;-54
2023/06/09 11:13:03;;;;;;;5.57;2.90;;;25.60;91.00;;;;;;5025816;28;20202;-53
2023/06/09 11:16:01;;;;;;;5.45;3.40;;;25.60;91.30;;;;;;5020596;28;20301;-54
2023/06/09 11:18:30;;;;;;;4.93;3.67;;;25.70;91.50;;;;;;5031780;28;20211;-53
2023/06/09 11:21:20;;;;;;;5.55;3.35;;;25.70;91.50;;;;;;5032645;28;20215;-54
2023/06/09 11:23:57;;;;;;;5.53;3.30;;;25.70;91.20;;;;;;5025374;28;20298;-54
2023/06/09 11:26:25;;;;;;;4.38;3.17;;;25.80;91.70;;;;;;5032659;28;20202;-54
2023/06/09 11:28:52;;;;;;;5.30;3.10;;;25.70;90.70;;;;;;5018933;28;20641;-53
2023/06/09 11:31:19;;;;;;;3.40;3.03;;;25.80;90.50;;;;;;5020568;28;20204;-55
2023/06/09 11:33:50;;;;;;;4.25;3.22;;;26.00;87.30;;;;;;5042696;28;20203;-53
2023/06/09 11:36:19;;;;;;;3.15;2.85;;;26.00;88.40;;;;;;5032547;28;20338;-56
2023/06/09 11:38:48;;;;;;;3.50;3.13;;;26.10;92.00;;;;;;5029158;28;20238;-52
2023/06/09 11:41:19;;;;;;;5.82;2.90;;;26.30;92.70;;;;;;5031149;28;20779;-55
2023/06/09 11:43:53;;;;;;;5.72;2.92;;;26.40;92.00;;;;;;5034670;28;20202;-54
2023/06/09 11:46:20;;;;;;;4.80;3.05;;;26.40;92.00;;;;;;5014085;28;20446;-53
2023/06/09 11:49:03;;;;;;;4.68;2.60;;;26.40;91.80;;;;;;5034630;28;20255;-53
2023/06/09 11:51:30;;;;;;;3.10;2.80;;;26.50;90.00;;;;;;5035221;28;20215;-52
2023/06/09 11:53:57;;;;;;;5.50;3.28;;;26.50;90.80;;;;;;5036431;28;20203;-54
2023/06/09 11:56:23;;;;;;;3.40;3.10;;;26.50;91.70;;;;;;5015631;28;20257;-50
2023/06/09 11:58:55;;;;;;;4.10;2.95;;;26.50;91.70;;;;;;5029816;28;20246;-55
2023/06/09 12:01:31;;;;;;;3.88;2.97;;;;;;;;;;5020535;28;20306;-51
2023/06/09 12:04:00;;;;;;;3.70;2.90;;;;;;;;;;5030961;28;20207;-48
2023/06/09 12:06:36;;;;;;;4.10;2.88;;;;;;;;;;5036744;28;20199;-53
2023/06/09 12:09:22;;;;;;;5.75;3.50;;;26.70;94.50;;;;;;5031805;28;20274;-52
2023/06/09 12:11:51;;;;;;;4.63;3.10;;;26.90;49.40;;;;;;5018720;28;20317;-54
2023/06/09 12:14:18;;;;;;;3.13;2.83;;;26.70;50.40;;;;;;5041876;28;20191;-50
2023/06/09 12:16:45;;;;;;;3.13;2.80;;;26.90;50.40;;;;;;5019907;28;20907;-53
2023/06/09 12:19:12;;;;;;;3.67;3.38;;;26.90;49.90;;;;;;5033266;28;20203;-53
2023/06/09 12:21:40;;;;;;;3.70;3.30;;;26.90;50.40;;;;;;5039126;28;20226;-54
2023/06/09 12:24:07;;;;;;;6.50;3.70;;;27.10;49.60;;;;;;5031459;28;20269;-54
2023/06/09 12:26:41;;;;;;;5.40;3.10;;;27.10;49.20;;;;;;5019219;28;20288;-55
2023/06/09 12:29:08;;;;;;;3.72;3.42;;;27.30;47.30;;;;;;5039723;28;20706;-53
2023/06/09 12:31:35;;;;;;;3.33;3.03;;;27.40;47.40;;;;;;5022334;28;20249;-53
2023/06/09 12:34:02;;;;;;;4.70;2.60;;;27.40;47.60;;;;;;5045262;28;20529;-55
2023/06/09 12:36:29;;;;;;;5.75;2.83;;;27.40;46.10;;;;;;5033798;28;20198;-55
2023/06/09 12:38:57;;;;;;;6.13;2.60;;;27.60;45.60;;;;;;5035986;28;20717;-54
2023/06/09 12:41:24;;;;;;;3.55;2.92;;;27.60;44.90;;;;;;5029883;28;20290;-55
2023/06/09 12:43:54;;;;;;;5.22;2.92;;;27.70;44.70;;;;;;5037889;28;20209;-53
2023/06/09 12:46:27;;;;;;;2.40;2.20;;;27.80;44.80;;;;;;5037174;28;20197;-56
2023/06/09 12:48:57;;;;;;;3.13;2.30;;;27.90;41.40;;;;;;5029541;28;20231;-52
2023/06/09 12:51:25;;;;;;;8.85;2.78;;;27.90;39.40;;;;;;5028566;28;21101;-54
2023/06/09 12:53:51;;;;;;;2.95;2.40;;;28.30;38.70;;;;;;5036545;28;20856;-53
2023/06/09 12:56:20;;;;;;;5.55;2.70;;;28.50;72.10;;;;;;5032073;28;20625;-55
2023/06/09 12:58:47;;;;;;;3.10;2.30;;;28.60;38.90;;;;;;5043431;28;20682;-53
2023/06/09 13:01:15;;;;;;;2.97;2.42;;;28.70;37.60;;;;;;5036872;28;20230;-54
2023/06/09 13:03:42;;;;;;;3.03;2.75;;;28.90;38.10;;;;;;5019393;28;20208;-53
2023/06/09 13:06:09;;;;;;;5.10;2.90;;;29.10;36.80;;;;;;5033145;28;20222;-55
2023/06/09 13:08:36;;;;;;;3.70;2.10;;;29.40;35.30;;;;;;5025963;28;20352;-52
2023/06/09 13:11:03;;;;;;;3.67;2.53;;;29.40;36.20;;;;;;5034416;28;20582;-53
2023/06/09 13:13:31;;;;;;;3.97;2.30;;;29.90;34.30;;;;;;5037069;28;20196;-49
2023/06/09 13:15:58;;;;;;;3.10;2.40;;;30.20;33.60;;;;;;5038210;28;20202;-53
2023/06/09 13:18:25;;;;;;;2.75;2.55;;;30.40;33.40;;;;;;5019904;28;20207;-52
2023/06/09 13:20:53;;;;;;;2.60;2.20;;;30.70;32.90;;;;;;5034656;28;20215;-55
2023/06/09 13:23:19;;;;;;;2.28;2.08;;;30.50;31.30;;;;;;5031369;28;20238;-52
2023/06/09 13:25:47;;;;;;;3.53;1.98;;;30.60;31.00;;;;;;5042768;28;20195;-54
2023/06/09 13:28:15;;;;;;;3.00;2.38;;;30.90;31.20;;;;;;5033776;28;20234;-54
2023/06/09 13:30:44;;;;;;;3.05;2.83;;;31.00;31.60;;;;;;5037456;28;20195;-50
2023/06/09 13:33:11;;;;;;;2.70;2.22;;;31.00;32.60;;;;;;5012621;28;20204;-54
2023/06/09 13:35:41;;;;;;;3.17;1.90;;;31.20;30.70;;;;;;5032261;28;20257;-54
2023/06/09 13:38:08;;;;;;;2.60;2.40;;;31.50;30.80;;;;;;5034336;28;20243;-53
2023/06/09 13:40:36;;;;;;;3.67;2.35;;;31.80;30.50;;;;;;5037626;28;20212;-54
2023/06/09 13:43:03;;;;;;;2.58;2.15;;;31.90;29.20;;;;;;5041948;28;20253;-53
2023/06/09 13:45:30;;;;;;;4.18;2.53;;;31.60;29.80;;;;;;5035683;28;20291;-53
2023/06/09 13:47:59;;;;;;;2.65;2.03;;;31.60;29.90;;;;;;5031298;28;20671;-54
2023/06/09 13:50:26;;;;;;;2.33;1.80;;;31.70;28.90;;;;;;5010919;28;20230;-53
2023/06/09 13:52:53;;;;;;;3.38;2.60;;;31.70;28.50;;;;;;5040428;28;20195;-53
2023/06/09 13:55:20;;;;;;;2.78;2.42;;;31.90;28.80;;;;;;5034917;28;20674;-52
2023/06/09 13:57:47;;;;;;;3.13;2.35;;;32.10;29.60;;;;;;5043072;28;20234;-48
2023/06/09 14:00:15;;;;;;;2.75;2.50;;;32.40;30.10;;;;;;5032826;28;20375;-54
2023/06/09 14:02:42;;;;;;;2.60;2.40;;;32.60;31.40;;;;;;5030215;28;20340;-52
2023/06/09 14:05:13;;;;;;;3.15;2.75;;;32.90;31.90;;;;;;5012946;28;20220;-54
2023/06/09 14:07:41;;;;;;;4.03;2.78;;;33.30;32.40;;;;;;5033941;28;20219;-51
2023/06/09 14:10:10;;;;;;;5.35;2.88;;;33.30;32.30;;;;;;5036347;28;20195;-53
2023/06/09 14:12:37;;;;;;;4.45;2.63;;;33.40;31.10;;;;;;5036622;28;20219;-50
2023/06/09 14:15:06;;;;;;;3.20;2.50;;;33.00;32.00;;;;;;5036753;28;20207;-47
2023/06/09 14:17:33;;;;;;;3.65;2.60;;;32.80;31.50;;;;;;5017614;28;20231;-50
2023/06/09 14:19:59;;;;;;;3.60;2.60;;;32.70;31.20;;;;;;5043609;28;20756;-52
2023/06/09 14:22:28;;;;;;;2.88;2.35;;;32.90;31.70;;;;;;5009901;28;20218;-49
2023/06/09 14:24:55;;;;;;;2.88;2.58;;;32.90;31.60;;;;;;5039028;28;20302;-51
2023/06/09 14:27:21;;;;;;;3.63;3.03;;;32.80;31.60;;;;;;5040287;28;20836;-54
2023/06/09 14:29:48;;;;;;;3.65;2.97;;;32.90;32.40;;;;;;5036068;28;20732;-52
2023/06/09 14:32:15;;;;;;;4.50;3.50;;;33.20;32.50;;;;;;5025641;28;20206;-54
2023/06/09 14:34:42;;;;;;;3.22;2.92;;;33.00;32.60;;;;;;5041061;28;20223;-51
2023/06/09 14:37:09;;;;;;;3.50;3.20;;;33.00;33.40;;;;;;5015599;28;20233;-53
2023/06/09 14:39:37;;;;;;;3.45;2.90;;;33.20;33.50;;;;;;5028875;28;20350;-50
2023/06/09 14:42:04;;;;;;;2.90;2.58;;;33.50;32.50;;;;;;5039680;28;20320;-53
2023/06/09 14:44:31;;;;;;;3.17;2.88;;;33.40;32.60;;;;;;5033425;28;20192;-50
2023/06/09 14:46:58;;;;;;;6.60;3.40;;;33.50;32.60;;;;;;5040523;28;20756;-51
2023/06/09 14:49:25;;;;;;;3.17;2.60;;;33.60;32.30;;;;;;5033288;28;20265;-51
2023/06/09 14:51:52;;;;;;;4.50;2.70;;;33.60;32.10;;;;;;5025814;28;20203;-52
2023/06/09 14:54:19;;;;;;;3.67;2.45;;;33.80;31.60;;;;;;5032983;28;20274;-54
2023/06/09 14:56:47;;;;;;;3.40;2.35;;;33.80;31.00;;;;;;5032210;28;20195;-52
2023/06/09 14:59:14;;;;;;;2.47;2.28;;;33.90;30.00;;;;;;5033397;28;20183;-52
2023/06/09 15:01:40;;;;;;;2.30;2.10;;;33.90;29.50;;;;;;5042566;28;20560;-46
2023/06/09 15:04:07;;;;;;;2.20;2.00;;;33.90;28.70;;;;;;5034918;28;20249;-53
2023/06/09 15:06:35;;;;;;;3.25;2.17;;;33.70;28.40;;;;;;5028675;28;20199;-51
2023/06/09 15:09:02;;;;;;;2.58;2.45;;;33.80;28.40;;;;;;5029802;28;20304;-51
2023/06/09 15:11:29;;;;;;;5.40;2.47;;;33.80;28.90;;;;;;5030623;28;20439;-53
2023/06/09 15:13:57;;;;;;;3.03;2.72;;;33.70;29.00;;;;;;5034080;28;20922;-50
2023/06/09 15:16:24;;;;;;;3.33;2.33;;;33.50;29.10;;;;;;5032074;28;20203;-55
2023/06/09 15:18:52;;;;;;;2.80;2.47;;;33.30;29.50;;;;;;5036617;28;20578;-53
2023/06/09 15:21:19;;;;;;;3.03;2.17;;;33.30;29.60;;;;;;5026613;28;20601;-55
2023/06/09 15:23:46;;;;;;;3.33;3.03;;;33.30;30.40;;;;;;5026596;28;20222;-52
2023/06/09 15:26:13;;;;;;;2.80;2.60;;;33.30;31.70;;;;;;5030357;28;20186;-54
2023/06/09 15:28:40;;;;;;;3.58;2.72;;;33.40;31.90;;;;;;5036706;28;20294;-48
2023/06/09 15:31:08;;;;;;;3.17;2.60;;;33.30;32.30;;;;;;5043236;28;20242;-52
2023/06/09 15:33:36;;;;;;;3.72;2.88;;;33.20;33.80;;;;;;5033722;28;20199;-48
2023/06/09 15:36:03;;;;;;;5.63;2.70;;;33.20;34.60;;;;;;5042851;28;20199;-47
2023/06/09 15:38:30;;;;;;;2.95;2.67;;;33.60;35.80;;;;;;5006217;28;20235;-53
2023/06/09 15:40:57;;;;;;;3.00;2.70;;;33.50;36.80;;;;;;5034656;28;20215;-47
2023/06/09 15:43:26;;;;;;;3.78;2.85;;;33.50;37.20;;;;;;5034447;28;20211;-53
2023/06/09 15:45:54;;;;;;;4.93;3.05;;;33.70;37.50;;;;;;5042836;28;20239;-49
2023/06/09 15:48:24;;;;;;;4.05;2.88;;;33.60;37.60;;;;;;5031535;28;20244;-52
2023/06/09 15:50:51;;;;;;;6.43;3.08;;;33.50;38.30;;;;;;5035057;28;20248;-52
2023/06/09 15:53:20;;;;;;;3.63;2.80;;;33.30;39.20;;;;;;5014682;28;20939;-55
2023/06/09 15:55:47;;;;;;;3.50;3.20;;;33.30;39.70;;;;;;5035362;28;20329;-51
2023/06/09 15:58:15;;;;;;;5.13;3.30;;;33.30;40.30;;;;;;5037271;28;20242;-54
2023/06/09 16:00:42;;;;;;;5.07;3.58;;;33.30;40.80;;;;;;5039321;28;20223;-47
2023/06/09 16:03:09;;;;;;;6.53;3.47;;;33.00;41.40;;;;;;5046686;28;20195;-53
2023/06/09 16:05:38;;;;;;;5.38;3.25;;;33.30;41.30;;;;;;5033274;28;20195;-54
2023/06/09 16:08:07;;;;;;;5.18;3.40;;;32.70;42.60;;;;;;5037700;28;20207;-51
2023/06/09 16:10:36;;;;;;;5.57;3.65;;;32.60;43.20;;;;;;5024974;28;20199;-47
2023/06/09 16:13:04;;;;;;;4.20;3.53;;;32.60;43.00;;;;;;5043146;28;20879;-49
2023/06/09 16:15:33;;;;;;;4.35;3.45;;;32.60;43.00;;;;;;5038001;28;20981;-49
2023/06/09 16:18:02;;;;;;;5.80;3.60;;;32.30;43.40;;;;;;5046485;28;20214;-49
2023/06/09 16:20:29;;;;;;;4.07;3.42;;;32.30;43.40;;;;;;5029146;28;20187;-49
2023/06/09 16:22:57;;;;;;;5.20;3.45;;;32.00;44.30;;;;;;5042227;28;20241;-47
2023/06/09 16:25:24;;;;;;;4.82;3.70;;;32.20;44.40;;;;;;5020416;28;20215;-51
2023/06/09 16:27:51;;;;;;;5.78;3.75;;;32.20;44.00;;;;;;5024049;28;20239;-50
2023/06/09 16:30:18;;;;;;;3.58;3.28;;;31.70;44.90;;;;;;5036202;28;20202;-54
2023/06/09 16:32:45;;;;;;;4.63;3.47;;;31.50;44.40;;;;;;5030975;28;20268;-53
2023/06/09 16:35:13;;;;;;;4.97;3.63;;;31.00;44.70;;;;;;5029507;28;20191;-54
2023/06/09 16:37:40;;;;;;;4.18;3.35;;;29.90;49.60;;;;;;5043108;28;20227;-53
2023/06/09 16:40:09;;;;;;;6.63;3.53;;;29.00;47.30;;;;;;5033093;28;20200;-52
2023/06/09 16:42:36;;;;;;;5.60;3.88;;;28.40;48.60;;;;;;5029264;28;20214;-53
2023/06/09 16:45:03;;;;;;;4.95;3.97;;;27.70;49.50;;;;;;5043942;28;20227;-53
2023/06/09 16:47:30;;;;;;;5.22;3.30;;;27.10;50.20;;;;;;5023968;28;21835;-51
2023/06/09 16:49:57;;;;;;;7.10;3.95;;;26.70;50.90;;;;;;5032500;28;20199;-49
2023/06/09 16:52:24;;;;;;;5.32;3.30;;;26.20;51.60;;;;;;5031925;28;20219;-49
2023/06/09 16:54:51;;;;;;;5.38;3.47;;;25.90;52.50;;;;;;5045890;28;20191;-48
2023/06/09 16:57:19;;;;;;;6.25;3.50;;;25.70;52.60;;;;;;5009633;28;20226;-50
2023/06/09 16:59:45;;;;;;;4.00;3.60;;;25.30;52.70;;;;;;5044719;28;20318;-52
2023/06/09 17:02:12;;;;;;;5.25;3.50;;;25.10;53.10;;;;;;5021455;28;20277;-51
2023/06/09 17:04:39;;;;;;;6.10;3.42;;;25.10;53.40;;;;;;5033905;28;20199;-53
2023/06/09 17:07:06;;;;;;;3.70;3.28;;;25.10;53.50;;;;;;5039407;28;20227;-49
2023/06/09 17:09:33;;;;;;;5.68;3.47;;;24.90;53.80;;;;;;5042111;28;20599;-53
2023/06/09 17:12:00;;;;;;;3.58;2.90;;;24.70;53.60;;;;;;5021142;28;20195;-53
2023/06/09 17:14:29;;;;;;;4.85;3.08;;;24.50;53.80;;;;;;5032738;28;20234;-54
2023/06/09 17:16:56;;;;;;;3.65;3.22;;;24.50;53.90;;;;;;5029754;28;20214;-52
2023/06/09 17:19:23;;;;;;;3.38;2.65;;;24.40;54.40;;;;;;5047203;28;20668;-54
2023/06/09 17:21:50;;;;;;;3.58;3.03;;;24.20;54.40;;;;;;5029666;28;21203;-53
2023/06/09 17:24:17;;;;;;;4.38;3.15;;;24.10;55.00;;;;;;5045857;28;20631;-50
2023/06/09 17:26:44;;;;;;;6.38;3.03;;;24.20;55.20;;;;;;5027959;28;20332;-54
2023/06/09 17:29:13;;;;;;;6.43;2.70;;;24.00;55.30;;;;;;5027428;28;20223;-52
2023/06/09 17:31:41;;;;;;;4.57;3.28;;;23.80;55.40;;;;;;5031671;28;20187;-52
2023/06/09 17:34:09;;;;;;;4.72;3.20;;;23.60;55.00;;;;;;5039206;28;20198;-55
2023/06/09 17:36:36;;;;;;;5.35;2.92;;;23.40;55.20;;;;;;5031838;28;20203;-47
2023/06/09 17:39:02;;;;;;;4.93;2.90;;;23.20;55.50;;;;;;5042650;28;20219;-54
2023/06/09 17:41:29;;;;;;;5.00;2.67;;;23.20;56.00;;;;;;5039344;28;20206;-51
2023/06/09 17:43:57;;;;;;;4.72;3.17;;;23.00;56.20;;;;;;5017785;28;20211;-52
2023/06/09 17:46:24;;;;;;;3.53;2.75;;;23.00;56.70;;;;;;5032666;28;20832;-52
2023/06/09 17:48:52;;;;;;;4.18;2.55;;;22.80;56.00;;;;;;5045171;28;20285;-49
2023/06/09 17:51:19;;;;;;;3.58;2.30;;;22.70;55.80;;;;;;5028632;28;20227;-51
2023/06/09 17:53:46;;;;;;;5.35;2.97;;;22.50;56.00;;;;;;5045021;28;20713;-52
2023/06/09 17:56:13;;;;;;;4.30;2.20;;;22.50;55.50;;;;;;5036092;28;20325;-54
2023/06/09 17:58:39;;;;;;;8.35;3.20;;;22.40;55.30;;;;;;5012291;28;20230;-51
2023/06/09 18:01:06;;;;;;;2.92;2.63;;;22.40;55.20;;;;;;5040438;28;20279;-55
2023/06/09 18:03:35;;;;;;;3.13;2.00;;;22.40;55.50;;;;;;5043042;28;20829;-53
2023/06/09 18:06:03;;;;;;;6.75;2.47;;;22.30;55.80;;;;;;5040930;28;20195;-54
2023/06/09 18:08:30;;;;;;;3.53;2.13;;;22.20;56.30;;;;;;5032115;28;20343;-50
2023/06/09 18:10:56;;;;;;;3.78;2.40;;;22.10;56.50;;;;;;5034706;28;20208;-54
2023/06/09 18:13:23;;;;;;;3.05;2.30;;;22.10;56.80;;;;;;5011899;28;21079;-53
2023/06/09 18:15:50;;;;;;;3.55;2.10;;;22.10;56.90;;;;;;5043463;28;20191;-51
2023/06/09 18:18:17;;;;;;;3.80;2.33;;;22.00;58.00;;;;;;5034375;28;20935;-51
2023/06/09 18:20:44;;;;;;;2.63;1.63;;;21.90;57.80;;;;;;5041341;28;20207;-48
2023/06/09 18:23:12;;;;;;;5.32;2.17;;;21.70;58.80;;;;;;5028818;28;20247;-54
2023/06/09 18:25:39;;;;;;;2.38;2.17;;;21.50;59.70;;;;;;5029395;28;20202;-56
2023/06/09 18:28:06;;;;;;;2.85;1.88;;;21.50;60.70;;;;;;5039689;28;20277;-50
2023/06/09 18:30:33;;;;;;;4.28;2.00;;;21.30;61.70;;;;;;5016348;28;20213;-54
2023/06/09 18:33:00;;;;;;;4.82;2.20;;;21.20;62.90;;;;;;5041972;28;20175;-50
2023/06/09 18:35:27;;;;;;;3.15;1.90;;;21.10;64.00;;;;;;5046596;28;20195;-51